sensor_id;sensor_type;location;lat;lon;timestamp;temperature;humidity
3262;DHT22;1643;47.746;9.000;2023-04-06T00:01:31;5.80;88.20
3262;DHT22;1643;47.746;9.000;2023-04-06T00:03:56;5.70;88.00
3262;DHT22;1643;47.746;9.000;2023-04-06T00:06:22;5.70;87.80
3262;DHT22;1643;47.746;9.000;2023-04-06T00:08:47;5.70;87.60
3262;DHT22;1643;47.746;9.000;2023-04-06T00:11:13;5.60;87.50
3262;DHT22;1643;47.746;9.000;2023-04-06T00:13:39;5.60;87.60
3262;DHT22;1643;47.746;9.000;2023-04-06T00:16:05;5.50;87.90
3262;DHT22;1643;47.746;9.000;2023-04-06T00:18:31;5.50;88.30
3262;DHT22;1643;47.746;9.000;2023-04-06T00:20:57;5.50;89.00
3262;DHT22;1643;47.746;9.000;2023-04-06T00:23:24;5.40;89.60
3262;DHT22;1643;47.746;9.000;2023-04-06T00:25:49;5.40;90.00
3262;DHT22;1643;47.746;9.000;2023-04-06T00:28:15;5.40;90.10
3262;DHT22;1643;47.746;9.000;2023-04-06T00:30:41;5.40;90.30
3262;DHT22;1643;47.746;9.000;2023-04-06T00:33:07;5.40;90.50
3262;DHT22;1643;47.746;9.000;2023-04-06T00:35:32;5.40;90.60
3262;DHT22;1643;47.746;9.000;2023-04-06T00:37:58;5.30;90.60
3262;DHT22;1643;47.746;9.000;2023-04-06T00:40:24;5.30;90.60
3262;DHT22;1643;47.746;9.000;2023-04-06T00:42:50;5.30;90.60
3262;DHT22;1643;47.746;9.000;2023-04-06T00:45:15;5.30;90.60
3262;DHT22;1643;47.746;9.000;2023-04-06T00:47:41;5.30;90.70
3262;DHT22;1643;47.746;9.000;2023-04-06T00:50:07;5.30;90.70
3262;DHT22;1643;47.746;9.000;2023-04-06T00:52:34;5.30;90.60
3262;DHT22;1643;47.746;9.000;2023-04-06T00:55:00;5.30;90.60
3262;DHT22;1643;47.746;9.000;2023-04-06T00:57:25;5.30;90.50
3262;DHT22;1643;47.746;9.000;2023-04-06T00:59:52;5.20;90.60
3262;DHT22;1643;47.746;9.000;2023-04-06T01:02:18;5.20;90.60
3262;DHT22;1643;47.746;9.000;2023-04-06T01:04:44;5.20;90.70
3262;DHT22;1643;47.746;9.000;2023-04-06T01:07:10;5.20;90.70
3262;DHT22;1643;47.746;9.000;2023-04-06T01:09:36;5.20;90.70
3262;DHT22;1643;47.746;9.000;2023-04-06T01:12:01;5.10;90.60
3262;DHT22;1643;47.746;9.000;2023-04-06T01:14:27;5.10;90.60
3262;DHT22;1643;47.746;9.000;2023-04-06T01:16:53;5.10;90.60
3262;DHT22;1643;47.746;9.000;2023-04-06T01:19:19;5.10;90.60
3262;DHT22;1643;47.746;9.000;2023-04-06T01:21:46;5.10;90.60
3262;DHT22;1643;47.746;9.000;2023-04-06T01:24:12;5.10;90.50
3262;DHT22;1643;47.746;9.000;2023-04-06T01:26:38;5.10;90.50
3262;DHT22;1643;47.746;9.000;2023-04-06T01:29:03;5.10;90.50
3262;DHT22;1643;47.746;9.000;2023-04-06T01:31:29;5.10;90.50
3262;DHT22;1643;47.746;9.000;2023-04-06T01:33:55;5.00;90.40
3262;DHT22;1643;47.746;9.000;2023-04-06T01:36:21;5.00;90.50
3262;DHT22;1643;47.746;9.000;2023-04-06T01:38:47;5.00;90.60
3262;DHT22;1643;47.746;9.000;2023-04-06T01:41:13;4.90;90.60
3262;DHT22;1643;47.746;9.000;2023-04-06T01:43:38;4.90;90.70
3262;DHT22;1643;47.746;9.000;2023-04-06T01:46:04;4.80;90.80
3262;DHT22;1643;47.746;9.000;2023-04-06T01:48:30;4.70;90.80
3262;DHT22;1643;47.746;9.000;2023-04-06T01:50:56;4.70;91.00
3262;DHT22;1643;47.746;9.000;2023-04-06T01:53:22;4.70;91.00
3262;DHT22;1643;47.746;9.000;2023-04-06T01:55:47;4.70;91.00
3262;DHT22;1643;47.746;9.000;2023-04-06T01:58:13;4.60;91.00
3262;DHT22;1643;47.746;9.000;2023-04-06T02:00:39;4.60;91.40
3262;DHT22;1643;47.746;9.000;2023-04-06T02:03:05;4.60;91.00
3262;DHT22;1643;47.746;9.000;2023-04-06T02:05:32;4.60;90.90
3262;DHT22;1643;47.746;9.000;2023-04-06T02:08:03;4.60;90.90
3262;DHT22;1643;47.746;9.000;2023-04-06T02:10:30;4.60;90.80
3262;DHT22;1643;47.746;9.000;2023-04-06T02:12:55;4.60;90.70
3262;DHT22;1643;47.746;9.000;2023-04-06T02:15:21;4.50;90.60
3262;DHT22;1643;47.746;9.000;2023-04-06T02:17:47;4.50;90.60
3262;DHT22;1643;47.746;9.000;2023-04-06T02:20:12;4.50;90.50
3262;DHT22;1643;47.746;9.000;2023-04-06T02:22:39;4.40;90.50
3262;DHT22;1643;47.746;9.000;2023-04-06T02:25:04;4.40;90.50
3262;DHT22;1643;47.746;9.000;2023-04-06T02:27:30;4.40;90.40
3262;DHT22;1643;47.746;9.000;2023-04-06T02:29:56;4.40;90.30
3262;DHT22;1643;47.746;9.000;2023-04-06T02:32:21;4.50;90.70
3262;DHT22;1643;47.746;9.000;2023-04-06T02:34:47;4.40;90.40
3262;DHT22;1643;47.746;9.000;2023-04-06T02:37:13;4.30;90.60
3262;DHT22;1643;47.746;9.000;2023-04-06T02:39:38;4.30;90.80
3262;DHT22;1643;47.746;9.000;2023-04-06T02:42:04;4.20;91.00
3262;DHT22;1643;47.746;9.000;2023-04-06T02:44:30;4.20;91.50
3262;DHT22;1643;47.746;9.000;2023-04-06T02:46:56;4.10;91.30
3262;DHT22;1643;47.746;9.000;2023-04-06T02:49:22;4.30;91.40
3262;DHT22;1643;47.746;9.000;2023-04-06T02:51:47;4.10;91.30
3262;DHT22;1643;47.746;9.000;2023-04-06T02:54:13;4.10;91.40
3262;DHT22;1643;47.746;9.000;2023-04-06T02:56:39;4.10;91.30
3262;DHT22;1643;47.746;9.000;2023-04-06T02:59:04;4.10;91.30
3262;DHT22;1643;47.746;9.000;2023-04-06T03:01:30;4.10;91.30
3262;DHT22;1643;47.746;9.000;2023-04-06T03:03:56;4.10;91.20
3262;DHT22;1643;47.746;9.000;2023-04-06T03:06:22;4.10;91.20
3262;DHT22;1643;47.746;9.000;2023-04-06T03:08:48;4.00;91.20
3262;DHT22;1643;47.746;9.000;2023-04-06T03:11:13;3.90;91.50
3262;DHT22;1643;47.746;9.000;2023-04-06T03:13:39;3.90;91.50
3262;DHT22;1643;47.746;9.000;2023-04-06T03:16:05;3.90;91.20
3262;DHT22;1643;47.746;9.000;2023-04-06T03:18:31;3.90;91.10
3262;DHT22;1643;47.746;9.000;2023-04-06T03:20:57;3.90;91.10
3262;DHT22;1643;47.746;9.000;2023-04-06T03:23:23;3.90;91.10
3262;DHT22;1643;47.746;9.000;2023-04-06T03:25:49;3.90;91.20
3262;DHT22;1643;47.746;9.000;2023-04-06T03:28:15;4.00;91.20
3262;DHT22;1643;47.746;9.000;2023-04-06T03:30:41;3.90;91.10
3262;DHT22;1643;47.746;9.000;2023-04-06T03:33:07;3.90;91.20
3262;DHT22;1643;47.746;9.000;2023-04-06T03:35:32;3.90;91.30
3262;DHT22;1643;47.746;9.000;2023-04-06T03:37:58;3.80;91.30
3262;DHT22;1643;47.746;9.000;2023-04-06T03:40:24;3.80;91.40
3262;DHT22;1643;47.746;9.000;2023-04-06T03:42:50;3.80;91.40
3262;DHT22;1643;47.746;9.000;2023-04-06T03:45:16;3.80;91.40
3262;DHT22;1643;47.746;9.000;2023-04-06T03:47:42;3.80;91.50
3262;DHT22;1643;47.746;9.000;2023-04-06T03:50:07;3.70;91.50
3262;DHT22;1643;47.746;9.000;2023-04-06T03:52:35;3.80;91.50
3262;DHT22;1643;47.746;9.000;2023-04-06T03:55:00;3.80;91.60
3262;DHT22;1643;47.746;9.000;2023-04-06T03:57:26;3.80;91.60
3262;DHT22;1643;47.746;9.000;2023-04-06T03:59:52;3.80;91.60
3262;DHT22;1643;47.746;9.000;2023-04-06T04:02:17;3.90;91.70
3262;DHT22;1643;47.746;9.000;2023-04-06T04:04:43;3.80;91.60
3262;DHT22;1643;47.746;9.000;2023-04-06T04:07:08;3.80;91.50
3262;DHT22;1643;47.746;9.000;2023-04-06T04:09:34;3.70;91.50
3262;DHT22;1643;47.746;9.000;2023-04-06T04:12:00;3.70;91.60
3262;DHT22;1643;47.746;9.000;2023-04-06T04:14:26;3.70;91.60
3262;DHT22;1643;47.746;9.000;2023-04-06T04:16:52;3.70;91.60
3262;DHT22;1643;47.746;9.000;2023-04-06T04:19:17;3.80;91.70
3262;DHT22;1643;47.746;9.000;2023-04-06T04:21:45;3.60;91.60
3262;DHT22;1643;47.746;9.000;2023-04-06T04:24:11;3.60;91.70
3262;DHT22;1643;47.746;9.000;2023-04-06T04:26:38;3.50;91.80
3262;DHT22;1643;47.746;9.000;2023-04-06T04:29:04;3.50;91.90
3262;DHT22;1643;47.746;9.000;2023-04-06T04:31:29;3.50;92.00
3262;DHT22;1643;47.746;9.000;2023-04-06T04:33:55;3.50;92.00
3262;DHT22;1643;47.746;9.000;2023-04-06T04:36:21;3.50;92.00
3262;DHT22;1643;47.746;9.000;2023-04-06T04:38:46;3.40;92.00
3262;DHT22;1643;47.746;9.000;2023-04-06T04:41:12;3.50;92.10
3262;DHT22;1643;47.746;9.000;2023-04-06T04:43:38;3.40;92.10
3262;DHT22;1643;47.746;9.000;2023-04-06T04:46:04;3.40;92.10
3262;DHT22;1643;47.746;9.000;2023-04-06T04:48:30;3.40;92.00
3262;DHT22;1643;47.746;9.000;2023-04-06T04:50:56;3.30;92.30
3262;DHT22;1643;47.746;9.000;2023-04-06T04:53:21;3.20;91.90
3262;DHT22;1643;47.746;9.000;2023-04-06T04:55:47;3.20;91.90
3262;DHT22;1643;47.746;9.000;2023-04-06T04:58:13;3.10;91.80
3262;DHT22;1643;47.746;9.000;2023-04-06T05:00:46;3.10;91.80
3262;DHT22;1643;47.746;9.000;2023-04-06T05:03:19;3.30;91.90
3262;DHT22;1643;47.746;9.000;2023-04-06T05:05:46;3.20;91.80
3262;DHT22;1643;47.746;9.000;2023-04-06T05:08:11;3.30;91.90
3262;DHT22;1643;47.746;9.000;2023-04-06T05:10:37;3.30;91.80
3262;DHT22;1643;47.746;9.000;2023-04-06T05:13:03;3.40;91.80
3262;DHT22;1643;47.746;9.000;2023-04-06T05:15:29;3.50;91.80
3262;DHT22;1643;47.746;9.000;2023-04-06T05:17:54;3.40;91.80
3262;DHT22;1643;47.746;9.000;2023-04-06T05:20:20;3.40;91.90
3262;DHT22;1643;47.746;9.000;2023-04-06T05:22:46;3.30;91.90
3262;DHT22;1643;47.746;9.000;2023-04-06T05:25:13;3.30;91.90
3262;DHT22;1643;47.746;9.000;2023-04-06T05:27:39;3.40;92.10
3262;DHT22;1643;47.746;9.000;2023-04-06T05:30:06;3.30;92.20
3262;DHT22;1643;47.746;9.000;2023-04-06T05:32:32;3.30;92.30
3262;DHT22;1643;47.746;9.000;2023-04-06T05:34:58;3.30;92.40
3262;DHT22;1643;47.746;9.000;2023-04-06T05:37:23;3.30;92.50
3262;DHT22;1643;47.746;9.000;2023-04-06T05:39:49;3.30;92.60
3262;DHT22;1643;47.746;9.000;2023-04-06T05:42:15;3.40;92.70
3262;DHT22;1643;47.746;9.000;2023-04-06T05:44:41;3.40;92.70
3262;DHT22;1643;47.746;9.000;2023-04-06T05:47:06;3.40;92.70
3262;DHT22;1643;47.746;9.000;2023-04-06T05:49:32;3.40;92.80
3262;DHT22;1643;47.746;9.000;2023-04-06T05:51:58;3.40;92.80
3262;DHT22;1643;47.746;9.000;2023-04-06T05:54:23;3.40;92.80
3262;DHT22;1643;47.746;9.000;2023-04-06T05:56:49;3.50;92.90
3262;DHT22;1643;47.746;9.000;2023-04-06T05:59:15;3.50;92.80
3262;DHT22;1643;47.746;9.000;2023-04-06T06:01:40;3.50;92.80
3262;DHT22;1643;47.746;9.000;2023-04-06T06:04:06;3.60;92.90
3262;DHT22;1643;47.746;9.000;2023-04-06T06:06:32;3.50;92.80
3262;DHT22;1643;47.746;9.000;2023-04-06T06:08:57;3.60;92.80
3262;DHT22;1643;47.746;9.000;2023-04-06T06:11:27;3.70;92.70
3262;DHT22;1643;47.746;9.000;2023-04-06T06:13:52;3.80;92.80
3262;DHT22;1643;47.746;9.000;2023-04-06T06:16:18;3.80;92.80
3262;DHT22;1643;47.746;9.000;2023-04-06T06:18:44;3.90;93.00
3262;DHT22;1643;47.746;9.000;2023-04-06T06:21:10;3.90;93.30
3262;DHT22;1643;47.746;9.000;2023-04-06T06:23:39;3.90;93.40
3262;DHT22;1643;47.746;9.000;2023-04-06T06:26:05;4.00;93.60
3262;DHT22;1643;47.746;9.000;2023-04-06T06:28:31;4.10;93.70
3262;DHT22;1643;47.746;9.000;2023-04-06T06:30:57;4.20;93.70
3262;DHT22;1643;47.746;9.000;2023-04-06T06:33:24;4.20;93.80
3262;DHT22;1643;47.746;9.000;2023-04-06T06:35:51;4.30;93.80
3262;DHT22;1643;47.746;9.000;2023-04-06T06:38:17;4.30;93.90
3262;DHT22;1643;47.746;9.000;2023-04-06T06:40:43;4.20;93.90
3262;DHT22;1643;47.746;9.000;2023-04-06T06:43:08;4.20;94.10
3262;DHT22;1643;47.746;9.000;2023-04-06T06:45:34;4.30;94.20
3262;DHT22;1643;47.746;9.000;2023-04-06T06:48:00;4.20;94.20
3262;DHT22;1643;47.746;9.000;2023-04-06T06:50:26;4.20;94.20
3262;DHT22;1643;47.746;9.000;2023-04-06T06:52:52;4.30;94.00
3262;DHT22;1643;47.746;9.000;2023-04-06T06:55:17;4.50;93.80
3262;DHT22;1643;47.746;9.000;2023-04-06T06:57:44;4.50;93.70
3262;DHT22;1643;47.746;9.000;2023-04-06T07:00:12;4.60;93.70
3262;DHT22;1643;47.746;9.000;2023-04-06T07:02:40;4.70;93.50
3262;DHT22;1643;47.746;9.000;2023-04-06T07:05:06;4.80;93.30
3262;DHT22;1643;47.746;9.000;2023-04-06T07:07:32;4.90;93.10
3262;DHT22;1643;47.746;9.000;2023-04-06T07:09:58;5.00;93.10
3262;DHT22;1643;47.746;9.000;2023-04-06T07:12:24;5.10;92.80
3262;DHT22;1643;47.746;9.000;2023-04-06T07:14:50;5.20;93.20
3262;DHT22;1643;47.746;9.000;2023-04-06T07:17:16;5.30;92.80
3262;DHT22;1643;47.746;9.000;2023-04-06T07:19:41;5.40;92.60
3262;DHT22;1643;47.746;9.000;2023-04-06T07:22:07;5.60;92.50
3262;DHT22;1643;47.746;9.000;2023-04-06T07:24:33;5.70;92.20
3262;DHT22;1643;47.746;9.000;2023-04-06T07:26:59;5.70;92.10
3262;DHT22;1643;47.746;9.000;2023-04-06T07:29:26;5.80;92.00
3262;DHT22;1643;47.746;9.000;2023-04-06T07:31:52;5.90;91.90
3262;DHT22;1643;47.746;9.000;2023-04-06T07:34:18;5.90;91.60
3262;DHT22;1643;47.746;9.000;2023-04-06T07:36:43;5.90;91.60
3262;DHT22;1643;47.746;9.000;2023-04-06T07:39:10;5.90;91.30
3262;DHT22;1643;47.746;9.000;2023-04-06T07:41:36;5.90;91.40
3262;DHT22;1643;47.746;9.000;2023-04-06T07:44:02;5.90;91.30
3262;DHT22;1643;47.746;9.000;2023-04-06T07:46:27;5.90;91.20
3262;DHT22;1643;47.746;9.000;2023-04-06T07:48:53;5.90;91.20
3262;DHT22;1643;47.746;9.000;2023-04-06T07:51:19;6.10;91.20
3262;DHT22;1643;47.746;9.000;2023-04-06T07:53:45;6.30;91.00
3262;DHT22;1643;47.746;9.000;2023-04-06T07:56:11;6.40;90.90
3262;DHT22;1643;47.746;9.000;2023-04-06T07:58:37;6.50;90.70
3262;DHT22;1643;47.746;9.000;2023-04-06T08:01:03;6.50;90.50
3262;DHT22;1643;47.746;9.000;2023-04-06T08:03:29;6.40;90.40
3262;DHT22;1643;47.746;9.000;2023-04-06T08:05:55;6.50;90.40
3262;DHT22;1643;47.746;9.000;2023-04-06T08:08:21;6.60;90.30
3262;DHT22;1643;47.746;9.000;2023-04-06T08:10:48;6.70;90.40
3262;DHT22;1643;47.746;9.000;2023-04-06T08:13:14;6.70;90.30
3262;DHT22;1643;47.746;9.000;2023-04-06T08:15:40;6.80;90.20
3262;DHT22;1643;47.746;9.000;2023-04-06T08:18:06;6.90;90.10
3262;DHT22;1643;47.746;9.000;2023-04-06T08:20:31;6.90;89.90
3262;DHT22;1643;47.746;9.000;2023-04-06T08:22:57;7.00;89.40
3262;DHT22;1643;47.746;9.000;2023-04-06T08:25:23;6.90;88.70
3262;DHT22;1643;47.746;9.000;2023-04-06T08:27:48;6.90;88.80
3262;DHT22;1643;47.746;9.000;2023-04-06T08:30:14;7.00;88.90
3262;DHT22;1643;47.746;9.000;2023-04-06T08:32:44;7.10;88.70
3262;DHT22;1643;47.746;9.000;2023-04-06T08:35:10;7.10;88.80
3262;DHT22;1643;47.746;9.000;2023-04-06T08:37:36;7.20;88.20
3262;DHT22;1643;47.746;9.000;2023-04-06T08:40:02;7.30;88.20
3262;DHT22;1643;47.746;9.000;2023-04-06T08:42:32;7.30;87.50
3262;DHT22;1643;47.746;9.000;2023-04-06T08:44:58;7.30;87.50
3262;DHT22;1643;47.746;9.000;2023-04-06T08:47:24;7.40;87.40
3262;DHT22;1643;47.746;9.000;2023-04-06T08:49:50;7.40;86.90
3262;DHT22;1643;47.746;9.000;2023-04-06T08:52:18;7.60;86.70
3262;DHT22;1643;47.746;9.000;2023-04-06T08:54:44;7.60;86.90
3262;DHT22;1643;47.746;9.000;2023-04-06T08:57:10;7.70;86.70
3262;DHT22;1643;47.746;9.000;2023-04-06T08:59:36;7.80;86.70
3262;DHT22;1643;47.746;9.000;2023-04-06T09:02:04;7.80;86.50
3262;DHT22;1643;47.746;9.000;2023-04-06T09:04:32;7.90;86.70
3262;DHT22;1643;47.746;9.000;2023-04-06T09:06:58;8.10;86.70
3262;DHT22;1643;47.746;9.000;2023-04-06T09:09:24;8.10;86.60
3262;DHT22;1643;47.746;9.000;2023-04-06T09:11:51;8.10;86.30
3262;DHT22;1643;47.746;9.000;2023-04-06T09:14:29;8.10;86.10
3262;DHT22;1643;47.746;9.000;2023-04-06T09:16:58;8.10;86.40
3262;DHT22;1643;47.746;9.000;2023-04-06T09:19:23;8.30;86.10
3262;DHT22;1643;47.746;9.000;2023-04-06T09:21:49;8.30;85.80
3262;DHT22;1643;47.746;9.000;2023-04-06T09:24:15;8.40;85.60
3262;DHT22;1643;47.746;9.000;2023-04-06T09:26:46;8.50;85.50
3262;DHT22;1643;47.746;9.000;2023-04-06T09:29:25;8.60;84.60
3262;DHT22;1643;47.746;9.000;2023-04-06T09:31:51;8.60;84.70
3262;DHT22;1643;47.746;9.000;2023-04-06T09:34:22;8.60;85.10
3262;DHT22;1643;47.746;9.000;2023-04-06T09:36:49;8.80;84.60
3262;DHT22;1643;47.746;9.000;2023-04-06T09:39:15;8.80;83.70
3262;DHT22;1643;47.746;9.000;2023-04-06T09:41:40;8.70;83.50
3262;DHT22;1643;47.746;9.000;2023-04-06T09:44:07;8.80;83.70
3262;DHT22;1643;47.746;9.000;2023-04-06T09:46:40;8.90;83.80
3262;DHT22;1643;47.746;9.000;2023-04-06T09:49:07;9.00;83.50
3262;DHT22;1643;47.746;9.000;2023-04-06T09:54:05;9.20;82.60
3262;DHT22;1643;47.746;9.000;2023-04-06T09:56:37;9.40;81.90
3262;DHT22;1643;47.746;9.000;2023-04-06T09:59:12;9.50;81.30
3262;DHT22;1643;47.746;9.000;2023-04-06T10:01:39;9.60;80.50
3262;DHT22;1643;47.746;9.000;2023-04-06T10:04:30;9.70;80.90
3262;DHT22;1643;47.746;9.000;2023-04-06T10:06:59;9.90;81.30
3262;DHT22;1643;47.746;9.000;2023-04-06T10:09:28;10.00;79.90
3262;DHT22;1643;47.746;9.000;2023-04-06T10:11:58;10.20;77.80
3262;DHT22;1643;47.746;9.000;2023-04-06T10:14:24;10.10;77.50
3262;DHT22;1643;47.746;9.000;2023-04-06T10:16:50;10.10;77.90
3262;DHT22;1643;47.746;9.000;2023-04-06T10:19:22;10.30;78.10
3262;DHT22;1643;47.746;9.000;2023-04-06T10:21:51;10.50;75.70
3262;DHT22;1643;47.746;9.000;2023-04-06T10:24:18;10.40;76.10
3262;DHT22;1643;47.746;9.000;2023-04-06T10:27:06;10.40;76.00
3262;DHT22;1643;47.746;9.000;2023-04-06T10:29:46;10.60;76.10
3262;DHT22;1643;47.746;9.000;2023-04-06T10:32:13;10.70;74.70
3262;DHT22;1643;47.746;9.000;2023-04-06T10:34:39;10.70;74.10
3262;DHT22;1643;47.746;9.000;2023-04-06T10:37:15;10.70;74.60
3262;DHT22;1643;47.746;9.000;2023-04-06T10:39:56;11.10;73.10
3262;DHT22;1643;47.746;9.000;2023-04-06T10:42:35;11.00;72.00
3262;DHT22;1643;47.746;9.000;2023-04-06T10:45:01;10.90;72.10
3262;DHT22;1643;47.746;9.000;2023-04-06T10:47:27;11.00;72.90
3262;DHT22;1643;47.746;9.000;2023-04-06T10:49:52;11.10;73.20
3262;DHT22;1643;47.746;9.000;2023-04-06T10:52:18;11.30;73.80
3262;DHT22;1643;47.746;9.000;2023-04-06T10:54:44;11.40;73.10
3262;DHT22;1643;47.746;9.000;2023-04-06T10:57:10;11.40;72.70
3262;DHT22;1643;47.746;9.000;2023-04-06T10:59:35;11.60;72.50
3262;DHT22;1643;47.746;9.000;2023-04-06T11:02:01;11.90;67.70
3262;DHT22;1643;47.746;9.000;2023-04-06T11:04:27;11.70;67.40
3262;DHT22;1643;47.746;9.000;2023-04-06T11:06:52;11.70;66.90
3262;DHT22;1643;47.746;9.000;2023-04-06T11:09:29;11.60;67.10
3262;DHT22;1643;47.746;9.000;2023-04-06T11:11:55;11.70;67.20
3262;DHT22;1643;47.746;9.000;2023-04-06T11:14:22;11.90;67.60
3262;DHT22;1643;47.746;9.000;2023-04-06T11:16:48;11.90;67.10
3262;DHT22;1643;47.746;9.000;2023-04-06T11:19:15;12.00;64.10
3262;DHT22;1643;47.746;9.000;2023-04-06T11:21:45;12.10;64.10
3262;DHT22;1643;47.746;9.000;2023-04-06T11:24:21;12.10;63.50
3262;DHT22;1643;47.746;9.000;2023-04-06T11:27:06;12.10;63.80
3262;DHT22;1643;47.746;9.000;2023-04-06T11:29:31;12.20;63.20
3262;DHT22;1643;47.746;9.000;2023-04-06T11:32:02;12.20;63.20
3262;DHT22;1643;47.746;9.000;2023-04-06T11:34:29;12.30;61.90
3262;DHT22;1643;47.746;9.000;2023-04-06T11:36:58;12.40;61.50
3262;DHT22;1643;47.746;9.000;2023-04-06T11:39:26;12.40;60.70
3262;DHT22;1643;47.746;9.000;2023-04-06T11:41:53;12.50;60.20
3262;DHT22;1643;47.746;9.000;2023-04-06T11:44:42;12.60;60.40
3262;DHT22;1643;47.746;9.000;2023-04-06T11:47:09;12.70;60.70
3262;DHT22;1643;47.746;9.000;2023-04-06T11:49:43;12.60;60.00
3262;DHT22;1643;47.746;9.000;2023-04-06T11:54:41;12.80;60.40
3262;DHT22;1643;47.746;9.000;2023-04-06T11:57:08;13.00;60.20
3262;DHT22;1643;47.746;9.000;2023-04-06T11:59:34;13.20;60.20
3262;DHT22;1643;47.746;9.000;2023-04-06T12:02:03;13.30;60.40
3262;DHT22;1643;47.746;9.000;2023-04-06T12:04:29;13.40;60.20
3262;DHT22;1643;47.746;9.000;2023-04-06T12:06:55;13.30;60.00
3262;DHT22;1643;47.746;9.000;2023-04-06T12:09:21;13.40;59.70
3262;DHT22;1643;47.746;9.000;2023-04-06T12:11:47;13.20;59.20
3262;DHT22;1643;47.746;9.000;2023-04-06T12:14:12;13.30;59.50
3262;DHT22;1643;47.746;9.000;2023-04-06T12:16:38;13.40;59.70
3262;DHT22;1643;47.746;9.000;2023-04-06T12:19:05;13.40;59.20
3262;DHT22;1643;47.746;9.000;2023-04-06T12:21:31;13.60;59.40
3262;DHT22;1643;47.746;9.000;2023-04-06T12:23:58;13.80;59.70
3262;DHT22;1643;47.746;9.000;2023-04-06T12:26:24;14.00;59.20
3262;DHT22;1643;47.746;9.000;2023-04-06T12:28:50;13.90;59.00
3262;DHT22;1643;47.746;9.000;2023-04-06T12:31:17;13.90;58.90
3262;DHT22;1643;47.746;9.000;2023-04-06T12:33:46;14.00;59.10
3262;DHT22;1643;47.746;9.000;2023-04-06T12:36:16;14.10;58.70
3262;DHT22;1643;47.746;9.000;2023-04-06T12:38:45;14.30;58.90
3262;DHT22;1643;47.746;9.000;2023-04-06T12:41:11;14.30;58.80
3262;DHT22;1643;47.746;9.000;2023-04-06T12:43:38;14.30;58.60
3262;DHT22;1643;47.746;9.000;2023-04-06T12:46:04;14.40;57.70
3262;DHT22;1643;47.746;9.000;2023-04-06T12:48:30;14.30;57.60
3262;DHT22;1643;47.746;9.000;2023-04-06T12:50:58;14.30;57.80
3262;DHT22;1643;47.746;9.000;2023-04-06T12:53:24;14.30;57.40
3262;DHT22;1643;47.746;9.000;2023-04-06T12:55:50;14.30;58.20
3262;DHT22;1643;47.746;9.000;2023-04-06T12:58:16;14.40;58.00
3262;DHT22;1643;47.746;9.000;2023-04-06T13:00:42;14.50;57.70
3262;DHT22;1643;47.746;9.000;2023-04-06T13:03:08;14.60;57.00
3262;DHT22;1643;47.746;9.000;2023-04-06T13:05:34;14.50;56.30
3262;DHT22;1643;47.746;9.000;2023-04-06T13:08:00;14.40;56.40
3262;DHT22;1643;47.746;9.000;2023-04-06T13:10:26;14.40;56.30
3262;DHT22;1643;47.746;9.000;2023-04-06T13:12:52;14.20;57.20
3262;DHT22;1643;47.746;9.000;2023-04-06T13:15:17;14.20;57.00
3262;DHT22;1643;47.746;9.000;2023-04-06T13:17:43;14.00;56.90
3262;DHT22;1643;47.746;9.000;2023-04-06T13:20:09;13.90;56.90
3262;DHT22;1643;47.746;9.000;2023-04-06T13:22:35;13.90;56.90
3262;DHT22;1643;47.746;9.000;2023-04-06T13:25:01;13.90;56.90
3262;DHT22;1643;47.746;9.000;2023-04-06T13:27:27;13.90;56.60
3262;DHT22;1643;47.746;9.000;2023-04-06T13:29:54;13.90;56.70
3262;DHT22;1643;47.746;9.000;2023-04-06T13:32:20;13.60;56.50
3262;DHT22;1643;47.746;9.000;2023-04-06T13:34:46;13.70;56.60
3262;DHT22;1643;47.746;9.000;2023-04-06T13:37:14;13.80;56.50
3262;DHT22;1643;47.746;9.000;2023-04-06T13:39:40;13.90;56.40
3262;DHT22;1643;47.746;9.000;2023-04-06T13:42:06;13.90;56.40
3262;DHT22;1643;47.746;9.000;2023-04-06T13:44:32;14.00;56.50
3262;DHT22;1643;47.746;9.000;2023-04-06T13:46:58;14.10;56.60
3262;DHT22;1643;47.746;9.000;2023-04-06T13:49:24;14.00;56.50
3262;DHT22;1643;47.746;9.000;2023-04-06T13:51:49;14.10;56.80
3262;DHT22;1643;47.746;9.000;2023-04-06T13:54:15;14.20;56.90
3262;DHT22;1643;47.746;9.000;2023-04-06T13:56:41;14.20;57.00
3262;DHT22;1643;47.746;9.000;2023-04-06T13:59:06;14.20;56.60
3262;DHT22;1643;47.746;9.000;2023-04-06T14:01:32;14.20;56.80
3262;DHT22;1643;47.746;9.000;2023-04-06T14:03:58;14.40;57.20
3262;DHT22;1643;47.746;9.000;2023-04-06T14:06:23;14.60;57.10
3262;DHT22;1643;47.746;9.000;2023-04-06T14:08:49;14.70;57.00
3262;DHT22;1643;47.746;9.000;2023-04-06T14:11:14;14.20;56.30
3262;DHT22;1643;47.746;9.000;2023-04-06T14:13:41;14.00;56.50
3262;DHT22;1643;47.746;9.000;2023-04-06T14:16:07;13.90;56.80
3262;DHT22;1643;47.746;9.000;2023-04-06T14:18:33;13.80;57.10
3262;DHT22;1643;47.746;9.000;2023-04-06T14:21:00;13.80;57.20
3262;DHT22;1643;47.746;9.000;2023-04-06T14:23:27;13.90;57.20
3262;DHT22;1643;47.746;9.000;2023-04-06T14:26:07;13.90;57.10
3262;DHT22;1643;47.746;9.000;2023-04-06T14:28:34;13.90;57.40
3262;DHT22;1643;47.746;9.000;2023-04-06T14:31:02;13.90;57.30
3262;DHT22;1643;47.746;9.000;2023-04-06T14:33:30;13.90;57.40
3262;DHT22;1643;47.746;9.000;2023-04-06T14:35:56;14.00;57.30
3262;DHT22;1643;47.746;9.000;2023-04-06T14:38:22;14.00;57.20
3262;DHT22;1643;47.746;9.000;2023-04-06T14:40:48;13.90;56.90
3262;DHT22;1643;47.746;9.000;2023-04-06T14:43:13;13.90;57.10
3262;DHT22;1643;47.746;9.000;2023-04-06T14:45:40;14.00;57.20
3262;DHT22;1643;47.746;9.000;2023-04-06T14:48:06;14.00;57.10
3262;DHT22;1643;47.746;9.000;2023-04-06T14:50:32;14.00;57.40
3262;DHT22;1643;47.746;9.000;2023-04-06T14:52:58;14.00;57.50
3262;DHT22;1643;47.746;9.000;2023-04-06T14:55:25;14.20;57.40
3262;DHT22;1643;47.746;9.000;2023-04-06T14:57:50;14.20;57.40
3262;DHT22;1643;47.746;9.000;2023-04-06T15:00:16;14.20;56.60
3262;DHT22;1643;47.746;9.000;2023-04-06T15:02:42;14.20;56.60
3262;DHT22;1643;47.746;9.000;2023-04-06T15:05:09;14.20;56.50
3262;DHT22;1643;47.746;9.000;2023-04-06T15:07:34;14.40;56.60
3262;DHT22;1643;47.746;9.000;2023-04-06T15:10:00;14.60;55.90
3262;DHT22;1643;47.746;9.000;2023-04-06T15:12:26;14.80;54.00
3262;DHT22;1643;47.746;9.000;2023-04-06T15:14:51;14.60;54.50
3262;DHT22;1643;47.746;9.000;2023-04-06T15:17:17;14.60;54.50
3262;DHT22;1643;47.746;9.000;2023-04-06T15:19:42;14.30;54.20
3262;DHT22;1643;47.746;9.000;2023-04-06T15:22:08;14.20;54.70
3262;DHT22;1643;47.746;9.000;2023-04-06T15:24:33;14.30;54.60
3262;DHT22;1643;47.746;9.000;2023-04-06T15:26:59;14.10;54.50
3262;DHT22;1643;47.746;9.000;2023-04-06T15:29:25;13.90;55.10
3262;DHT22;1643;47.746;9.000;2023-04-06T15:31:51;13.90;55.40
3262;DHT22;1643;47.746;9.000;2023-04-06T15:34:16;14.00;54.80
3262;DHT22;1643;47.746;9.000;2023-04-06T15:36:43;13.90;54.80
3262;DHT22;1643;47.746;9.000;2023-04-06T15:39:09;13.90;55.10
3262;DHT22;1643;47.746;9.000;2023-04-06T15:41:35;14.00;54.80
3262;DHT22;1643;47.746;9.000;2023-04-06T15:44:01;14.20;54.70
3262;DHT22;1643;47.746;9.000;2023-04-06T15:46:26;14.20;53.70
3262;DHT22;1643;47.746;9.000;2023-04-06T15:48:52;14.20;53.70
3262;DHT22;1643;47.746;9.000;2023-04-06T15:51:18;14.20;53.70
3262;DHT22;1643;47.746;9.000;2023-04-06T15:53:44;14.20;53.70
3262;DHT22;1643;47.746;9.000;2023-04-06T15:56:10;14.20;53.70
3262;DHT22;1643;47.746;9.000;2023-04-06T15:58:36;14.20;53.70
3262;DHT22;1643;47.746;9.000;2023-04-06T16:01:11;14.10;53.70
3262;DHT22;1643;47.746;9.000;2023-04-06T16:03:37;14.00;53.00
3262;DHT22;1643;47.746;9.000;2023-04-06T16:06:02;13.80;53.10
3262;DHT22;1643;47.746;9.000;2023-04-06T16:08:28;13.70;53.50
3262;DHT22;1643;47.746;9.000;2023-04-06T16:10:54;13.70;54.00
3262;DHT22;1643;47.746;9.000;2023-04-06T16:13:19;13.60;54.20